createdAt,value
2023-02-08T00:02:20.554Z,18.73
2023-02-08T00:04:49.452Z,18.73
2023-02-08T00:07:20.490Z,15.65
2023-02-08T00:09:57.711Z,18.08
2023-02-08T00:12:25.785Z,20.27
2023-02-08T00:14:54.087Z,19.08
2023-02-08T00:17:22.544Z,18.85
2023-02-08T00:19:50.275Z,17.23
2023-02-08T00:22:19.886Z,17.38
2023-02-08T00:24:51.162Z,15.68
2023-02-08T00:27:22.599Z,16.58
2023-02-08T00:29:50.664Z,17.27
2023-02-08T00:32:20.948Z,18.15
2023-02-08T00:34:48.985Z,22.75
2023-02-08T00:37:17.834Z,17.13
2023-02-08T00:39:45.663Z,17.80
2023-02-08T00:42:13.482Z,13.80
2023-02-08T00:44:41.814Z,20.38
2023-02-08T00:47:12.528Z,14.93
2023-02-08T00:49:42.441Z,18.30
2023-02-08T00:52:14.545Z,14.98
2023-02-08T00:54:44.874Z,14.00
2023-02-08T00:57:16.834Z,13.93
2023-02-08T00:59:46.031Z,16.15
2023-02-08T01:02:14.014Z,17.13
2023-02-08T01:04:42.260Z,15.07
2023-02-08T01:07:13.560Z,17.33
2023-02-08T01:09:42.079Z,14.20
2023-02-08T01:12:11.082Z,18.83
2023-02-08T01:14:41.723Z,16.17
2023-02-08T01:17:10.444Z,18.35
2023-02-08T01:19:38.152Z,17.60
2023-02-08T01:22:06.257Z,17.55
2023-02-08T01:24:34.099Z,15.75
2023-02-08T01:27:01.829Z,15.93
2023-02-08T01:29:33.398Z,15.93
2023-02-08T01:32:02.076Z,14.90
2023-02-08T01:34:31.630Z,15.55
2023-02-08T01:36:59.563Z,16.45
2023-02-08T01:39:27.420Z,19.02
2023-02-08T01:41:54.758Z,17.08
2023-02-08T01:45:17.555Z,15.95
2023-02-08T01:47:50.563Z,16.38
2023-02-08T01:50:24.204Z,17.02
2023-02-08T01:52:52.366Z,17.92
2023-02-08T01:55:42.557Z,15.45
2023-02-08T01:58:13.525Z,18.02
2023-02-08T02:00:43.518Z,18.88
2023-02-08T02:03:26.226Z,18.58
2023-02-08T02:06:33.348Z,18.27
2023-02-08T02:09:23.614Z,16.55
2023-02-08T02:11:56.108Z,15.18
2023-02-08T02:14:28.554Z,18.00
2023-02-08T02:17:00.238Z,15.40
2023-02-08T02:20:02.330Z,18.63
2023-02-08T02:22:30.647Z,20.52
2023-02-08T02:25:26.655Z,15.85
2023-02-08T02:28:09.416Z,18.23
2023-02-08T02:31:27.314Z,17.70
2023-02-08T02:36:52.922Z,16.45
2023-02-08T02:40:03.195Z,16.85
2023-02-08T02:43:30.974Z,17.15
2023-02-08T02:46:23.116Z,15.60
2023-02-08T02:49:25.729Z,17.83
2023-02-08T02:52:15.013Z,18.10
2023-02-08T02:54:50.756Z,20.25
2023-02-08T02:57:27.636Z,15.50
2023-02-08T02:59:58.769Z,18.02
2023-02-08T03:02:29.447Z,17.20
2023-02-08T03:04:58.829Z,18.88
2023-02-08T03:07:53.825Z,17.63
2023-02-08T03:10:36.684Z,17.70
2023-02-08T03:13:18.128Z,16.08
2023-02-08T03:15:54.521Z,16.73
2023-02-08T03:18:37.625Z,21.48
2023-02-08T03:21:40.434Z,16.55
2023-02-08T03:24:38.361Z,19.15
2023-02-08T03:27:22.417Z,19.23
2023-02-08T03:30:10.826Z,19.98
2023-02-08T03:32:52.366Z,20.27
2023-02-08T03:35:44.236Z,17.75
2023-02-08T03:38:44.314Z,20.05
2023-02-08T03:41:25.118Z,16.67
2023-02-08T03:44:17.007Z,19.15
2023-02-08T03:47:09.227Z,15.65
2023-02-08T03:52:11.373Z,17.33
2023-02-08T03:54:58.795Z,16.48
2023-02-08T03:57:43.889Z,18.98
2023-02-08T04:00:17.092Z,15.65
2023-02-08T04:03:03.863Z,22.50
2023-02-08T04:05:31.953Z,14.63
2023-02-08T04:08:00.695Z,18.75
2023-02-08T04:10:30.040Z,15.40
2023-02-08T04:12:59.589Z,18.48
2023-02-08T04:15:27.649Z,18.77
2023-02-08T04:17:55.780Z,17.63
2023-02-08T04:20:23.548Z,17.45
2023-02-08T04:22:51.706Z,15.20
2023-02-08T04:25:19.739Z,16.88
2023-02-08T04:27:48.142Z,20.10
2023-02-08T04:30:16.237Z,15.43
2023-02-08T04:32:43.931Z,19.38
2023-02-08T04:35:11.631Z,16.70
2023-02-08T04:37:39.329Z,13.80
2023-02-08T04:40:08.921Z,20.83
2023-02-08T04:42:36.604Z,19.00
2023-02-08T04:45:04.683Z,20.95
2023-02-08T04:47:32.340Z,15.45
2023-02-08T04:49:59.949Z,16.70
2023-02-08T04:52:30.467Z,18.08
2023-02-08T04:54:58.129Z,17.60
2023-02-08T04:57:28.596Z,16.80
2023-02-08T04:59:56.584Z,17.17
2023-02-08T05:02:25.171Z,18.23
2023-02-08T05:04:55.452Z,20.55
2023-02-08T05:07:25.768Z,14.70
2023-02-08T05:09:53.406Z,15.40
2023-02-08T05:12:23.507Z,17.00
2023-02-08T05:14:52.515Z,17.33
2023-02-08T05:17:20.320Z,20.35
2023-02-08T05:19:48.245Z,17.05
2023-02-08T05:22:17.124Z,19.83
2023-02-08T05:24:45.237Z,16.42
2023-02-08T05:27:14.785Z,22.73
2023-02-08T05:29:43.789Z,19.60
2023-02-08T05:32:12.730Z,16.67
2023-02-08T05:34:40.521Z,21.58
2023-02-08T05:37:08.607Z,18.25
2023-02-08T05:39:38.515Z,16.67
2023-02-08T05:42:09.722Z,14.68
2023-02-08T05:44:37.660Z,16.08
2023-02-08T05:47:05.332Z,15.43
2023-02-08T05:49:33.043Z,14.52
2023-02-08T05:52:00.831Z,15.55
2023-02-08T05:54:28.565Z,17.38
2023-02-08T05:56:56.456Z,17.17
2023-02-08T05:59:28.664Z,21.50
2023-02-08T06:01:57.673Z,16.85
2023-02-08T06:04:25.572Z,20.05
2023-02-08T06:06:53.607Z,21.98
2023-02-08T06:09:21.631Z,15.55
2023-02-08T06:11:50.456Z,20.88
2023-02-08T06:14:19.173Z,18.00
2023-02-08T06:16:50.715Z,15.20
2023-02-08T06:19:19.321Z,20.02
2023-02-08T06:21:47.307Z,20.08
2023-02-08T06:27:12.451Z,14.30
2023-02-08T06:29:40.154Z,16.00
2023-02-08T06:32:07.979Z,17.80
2023-02-08T06:34:37.415Z,17.30
2023-02-08T06:37:06.225Z,14.02
2023-02-08T06:39:35.119Z,16.73
2023-02-08T06:42:10.669Z,12.73
2023-02-08T06:44:54.186Z,15.70
2023-02-08T06:47:26.438Z,19.60
2023-02-08T06:49:55.796Z,13.02
2023-02-08T06:52:23.663Z,16.77
2023-02-08T06:54:55.188Z,14.93
2023-02-08T06:57:25.219Z,13.63
2023-02-08T06:59:56.931Z,14.32
2023-02-08T07:02:26.250Z,18.25
2023-02-08T07:04:59.346Z,16.40
2023-02-08T07:07:27.655Z,14.05
2023-02-08T07:09:56.955Z,15.75
2023-02-08T07:12:38.942Z,18.80
2023-02-08T07:15:16.086Z,17.45
2023-02-08T07:20:35.702Z,20.38
2023-02-08T07:25:40.350Z,15.50
2023-02-08T07:28:12.905Z,16.13
2023-02-08T07:30:45.606Z,13.50
2023-02-08T07:33:23.458Z,14.48
2023-02-08T07:45:17.345Z,16.02
2023-02-08T07:47:49.626Z,15.80
2023-02-08T07:50:25.846Z,18.90
2023-02-08T07:53:04.268Z,21.02
2023-02-08T07:55:35.697Z,14.85
2023-02-08T07:58:05.978Z,17.10
2023-02-08T08:00:40.095Z,15.27
2023-02-08T08:03:09.239Z,16.50
2023-02-08T08:05:43.109Z,18.95
2023-02-08T08:08:15.726Z,16.95
2023-02-08T08:10:51.921Z,21.02
2023-02-08T08:13:21.098Z,17.98
2023-02-08T08:15:51.492Z,15.73
2023-02-08T08:18:27.632Z,17.75
2023-02-08T08:20:57.095Z,15.18
2023-02-08T08:23:27.374Z,19.23
2023-02-08T08:26:06.217Z,21.95
2023-02-08T08:28:34.122Z,15.27
2023-02-08T08:31:16.326Z,13.95
2023-02-08T08:33:46.706Z,15.25
2023-02-08T08:36:15.384Z,18.50
2023-02-08T08:38:47.479Z,17.80
2023-02-08T08:41:18.688Z,15.90
2023-02-08T08:43:55.249Z,18.13
2023-02-08T08:46:23.603Z,15.98
2023-02-08T08:48:52.873Z,14.15
2023-02-08T08:51:21.197Z,18.52
2023-02-08T08:53:50.777Z,19.15
2023-02-08T08:56:18.465Z,17.77
2023-02-08T08:58:48.442Z,17.27
2023-02-08T09:01:19.590Z,15.68
2023-02-08T09:03:51.436Z,19.85
2023-02-08T09:06:22.754Z,16.75
2023-02-08T09:08:54.791Z,19.70
2023-02-08T09:11:22.576Z,18.58
2023-02-08T09:14:00.590Z,19.73
2023-02-08T09:16:29.835Z,18.48
2023-02-08T09:19:07.880Z,22.38
2023-02-08T09:21:37.037Z,19.75
2023-02-08T09:24:07.991Z,20.70
2023-02-08T09:26:38.447Z,21.95
2023-02-08T09:29:08.588Z,19.40
2023-02-08T09:31:38.030Z,16.95
2023-02-08T09:34:07.624Z,16.58
2023-02-08T09:36:40.995Z,21.38
2023-02-08T09:39:24.682Z,16.58
2023-02-08T09:42:33.360Z,18.00
2023-02-08T09:45:59.916Z,21.50
2023-02-08T09:48:34.745Z,14.18
2023-02-08T09:51:36.872Z,18.08
2023-02-08T09:54:30.539Z,17.20
2023-02-08T09:57:06.740Z,13.40
2023-02-08T09:59:36.596Z,14.23
2023-02-08T10:02:27.474Z,16.48
2023-02-08T10:05:21.329Z,15.80
2023-02-08T10:07:52.201Z,15.43
2023-02-08T10:10:57.405Z,16.50
2023-02-08T10:13:53.225Z,19.17
2023-02-08T10:16:58.984Z,14.98
2023-02-08T10:20:19.428Z,15.35
2023-02-08T10:23:11.512Z,14.68
2023-02-08T10:26:10.104Z,16.95
2023-02-08T10:29:14.872Z,18.70
2023-02-08T10:32:35.968Z,17.80
2023-02-08T10:35:18.058Z,17.75
2023-02-08T10:37:50.583Z,14.85
2023-02-08T10:40:38.802Z,16.70
2023-02-08T10:43:37.611Z,19.60
2023-02-08T10:46:27.421Z,14.05
2023-02-08T10:49:48.697Z,15.32
2023-02-08T10:52:16.238Z,13.35
2023-02-08T10:54:53.691Z,16.77
2023-02-08T10:57:43.657Z,14.18
2023-02-08T11:00:49.836Z,12.95
2023-02-08T11:03:30.384Z,15.07
2023-02-08T11:05:58.759Z,14.43
2023-02-08T11:08:29.916Z,14.20
2023-02-08T11:11:13.557Z,14.10
2023-02-08T11:13:52.417Z,15.20
2023-02-08T11:16:28.280Z,14.98
2023-02-08T11:19:02.094Z,16.08
2023-02-08T11:21:45.587Z,14.70
2023-02-08T11:24:50.657Z,12.07
2023-02-08T11:27:34.943Z,12.77
2023-02-08T11:30:14.579Z,12.70
2023-02-08T11:32:49.602Z,13.82
2023-02-08T11:35:29.569Z,16.63
2023-02-08T11:38:00.437Z,12.63
2023-02-08T11:40:43.139Z,14.55
2023-02-08T11:43:36.251Z,14.35
2023-02-08T11:46:07.372Z,16.50
2023-02-08T11:48:56.144Z,14.88
2023-02-08T11:51:38.736Z,13.82
2023-02-08T11:54:07.352Z,12.65
2023-02-08T11:56:37.137Z,12.88
2023-02-08T11:59:26.620Z,16.20
2023-02-08T12:02:40.648Z,12.70
2023-02-08T12:05:29.242Z,10.45
2023-02-08T12:08:20.508Z,11.02
2023-02-08T12:11:09.174Z,14.40
2023-02-08T12:14:21.718Z,10.73
2023-02-08T12:17:02.948Z,11.25
2023-02-08T12:20:48.088Z,10.63
2023-02-08T12:23:53.437Z,10.75
2023-02-08T12:27:16.367Z,9.35
2023-02-08T12:30:35.254Z,10.05
2023-02-08T12:33:42.526Z,7.67
2023-02-08T12:36:43.735Z,5.18
2023-02-08T12:39:59.675Z,6.45
2023-02-08T12:43:14.995Z,6.40
2023-02-08T12:46:15.700Z,11.68
2023-02-08T12:49:18.953Z,6.68
2023-02-08T12:52:25.322Z,5.03
2023-02-08T12:55:29.063Z,4.95
2023-02-08T12:59:11.775Z,6.70
2023-02-08T13:01:58.310Z,9.80
2023-02-08T13:04:41.156Z,6.43
2023-02-08T13:07:29.531Z,5.45
2023-02-08T13:11:14.088Z,6.40
2023-02-08T13:14:19.156Z,6.70
2023-02-08T13:16:57.596Z,7.68
2023-02-08T13:20:41.323Z,7.43
2023-02-08T13:23:52.470Z,6.80
2023-02-08T13:26:40.795Z,7.85
2023-02-08T13:29:22.634Z,10.40
2023-02-08T13:32:10.911Z,8.20
2023-02-08T13:34:55.469Z,8.63
2023-02-08T13:37:31.583Z,6.70
2023-02-08T13:40:34.148Z,6.13
2023-02-08T13:43:40.961Z,6.97
2023-02-08T13:46:12.081Z,7.63
2023-02-08T13:49:03.592Z,8.10
2023-02-08T13:51:34.082Z,7.82
2023-02-08T13:54:01.237Z,6.05
2023-02-08T13:56:52.405Z,6.03
2023-02-08T14:03:30.556Z,7.50
2023-02-08T14:06:02.505Z,5.43
2023-02-08T14:09:15.391Z,6.13
2023-02-08T14:12:37.775Z,9.35
2023-02-08T14:15:38.862Z,6.82
2023-02-08T14:18:29.452Z,8.82
2023-02-08T14:21:09.407Z,7.43
2023-02-08T14:23:40.690Z,6.70
2023-02-08T14:26:24.633Z,6.68
2023-02-08T14:29:02.018Z,6.83
2023-02-08T14:31:47.887Z,7.10
2023-02-08T14:34:35.059Z,6.13
2023-02-08T14:37:13.708Z,8.25
2023-02-08T14:39:53.485Z,6.20
2023-02-08T14:43:19.046Z,6.00
2023-02-08T14:45:57.008Z,6.53
2023-02-08T14:49:01.181Z,7.95
2023-02-08T14:51:37.324Z,8.32
2023-02-08T14:54:50.319Z,7.28
2023-02-08T14:57:33.472Z,6.63
2023-02-08T15:00:20.682Z,7.15
2023-02-08T15:02:52.531Z,6.85
2023-02-08T15:05:29.059Z,7.40
2023-02-08T15:08:02.350Z,6.90
2023-02-08T15:10:33.224Z,8.65
2023-02-08T15:13:07.970Z,7.10
2023-02-08T15:15:45.932Z,7.65
2023-02-08T15:18:31.505Z,7.95
2023-02-08T15:21:17.121Z,7.85
2023-02-08T15:24:08.546Z,5.60
2023-02-08T15:26:35.894Z,7.03
2023-02-08T15:29:06.352Z,10.60
2023-02-08T15:31:37.562Z,8.07
2023-02-08T15:34:06.225Z,5.97
2023-02-08T15:36:39.199Z,7.82
2023-02-08T15:39:39.537Z,7.82
2023-02-08T15:42:23.917Z,7.60
2023-02-08T15:44:56.659Z,7.53
2023-02-08T15:47:40.631Z,6.53
2023-02-08T15:50:23.599Z,5.65
2023-02-08T15:53:18.387Z,6.13
2023-02-08T15:56:09.260Z,6.10
2023-02-08T15:58:44.748Z,8.50
2023-02-08T16:01:21.756Z,7.90
2023-02-08T16:03:59.681Z,8.23
2023-02-08T16:06:39.269Z,10.50
2023-02-08T16:09:14.283Z,6.75
2023-02-08T16:11:51.245Z,5.13
2023-02-08T16:14:28.854Z,6.88
2023-02-08T16:16:59.089Z,8.40
2023-02-08T16:19:34.033Z,7.32
2023-02-08T16:22:21.302Z,8.32
2023-02-08T16:24:53.423Z,11.63
2023-02-08T16:27:30.239Z,28.38
2023-02-08T16:35:29.712Z,6.85
2023-02-08T16:38:02.832Z,6.25
2023-02-08T16:40:51.985Z,10.40
2023-02-08T16:43:47.241Z,7.00
2023-02-08T16:46:22.371Z,7.00
2023-02-08T16:48:56.879Z,10.25
2023-02-08T16:51:35.941Z,9.18
2023-02-08T16:54:18.482Z,8.55
2023-02-08T16:56:54.078Z,7.13
2023-02-08T16:59:36.666Z,6.93
2023-02-08T17:02:15.150Z,6.97
2023-02-08T17:04:48.140Z,8.93
2023-02-08T17:07:32.972Z,10.77
2023-02-08T17:10:08.780Z,8.70
2023-02-08T17:12:41.453Z,8.27
2023-02-08T17:15:10.942Z,8.32
2023-02-08T17:17:40.090Z,10.05
2023-02-08T17:20:29.506Z,9.57
2023-02-08T17:23:02.273Z,10.05
2023-02-08T17:25:39.066Z,10.88
2023-02-08T17:28:17.169Z,10.60
2023-02-08T17:30:48.717Z,19.40
2023-02-08T17:33:20.518Z,12.00
2023-02-08T17:35:52.697Z,10.73
2023-02-08T17:38:24.060Z,11.40
2023-02-08T17:40:51.794Z,15.55
2023-02-08T17:43:23.266Z,24.65
2023-02-08T17:45:51.751Z,18.58
2023-02-08T17:48:32.147Z,14.13
2023-02-08T17:51:00.913Z,12.50
2023-02-08T17:53:37.673Z,28.02
2023-02-08T17:56:14.305Z,27.13
2023-02-08T17:58:51.315Z,20.80
2023-02-08T18:01:27.218Z,17.67
2023-02-08T18:04:01.193Z,14.68
2023-02-08T18:06:30.584Z,15.07
2023-02-08T18:09:00.659Z,12.32
2023-02-08T18:11:28.126Z,17.38
2023-02-08T18:14:00.616Z,13.27
2023-02-08T18:16:31.129Z,11.63
2023-02-08T18:19:05.944Z,13.65
2023-02-08T18:21:37.750Z,12.20
2023-02-08T18:24:07.385Z,18.42
2023-02-08T18:26:36.377Z,11.82
2023-02-08T18:29:05.131Z,12.73
2023-02-08T18:31:33.462Z,14.10
2023-02-08T18:34:03.604Z,15.90
2023-02-08T18:36:34.013Z,20.83
2023-02-08T18:39:12.558Z,19.17
2023-02-08T18:41:44.822Z,18.77
2023-02-08T18:44:14.559Z,14.10
2023-02-08T18:47:01.692Z,14.10
2023-02-08T18:49:31.825Z,12.70
2023-02-08T18:52:00.295Z,10.63
2023-02-08T18:54:29.489Z,19.10
2023-02-08T18:57:04.707Z,14.20
2023-02-08T18:59:35.192Z,16.67
2023-02-08T19:02:08.533Z,17.08
2023-02-08T19:04:42.906Z,20.67
2023-02-08T19:07:14.554Z,16.52
2023-02-08T19:09:44.025Z,19.88
2023-02-08T19:12:15.701Z,16.02
2023-02-08T19:14:51.983Z,17.13
2023-02-08T19:17:26.676Z,16.25
2023-02-08T19:20:00.872Z,14.57
2023-02-08T19:22:34.118Z,17.15
2023-02-08T19:25:02.530Z,15.88
2023-02-08T19:27:31.766Z,19.08
2023-02-08T19:30:01.559Z,16.73
2023-02-08T19:32:37.263Z,15.35
2023-02-08T19:35:09.360Z,17.15
2023-02-08T19:37:38.126Z,20.30
2023-02-08T19:40:09.670Z,18.95
2023-02-08T19:42:37.217Z,18.65
2023-02-08T19:45:07.611Z,36.67
2023-02-08T19:47:50.614Z,33.60
2023-02-08T19:50:18.922Z,18.50
2023-02-08T19:52:56.796Z,17.08
2023-02-08T19:55:26.366Z,16.48
2023-02-08T19:57:53.698Z,12.82
2023-02-08T20:00:26.040Z,12.73
2023-02-08T20:03:12.982Z,12.73
2023-02-08T20:05:58.234Z,10.95
2023-02-08T20:08:29.937Z,13.77
2023-02-08T20:11:05.865Z,13.50
2023-02-08T20:13:38.792Z,13.30
2023-02-08T20:16:15.976Z,12.45
2023-02-08T20:18:48.619Z,14.77
2023-02-08T20:21:26.682Z,12.93
2023-02-08T20:23:58.966Z,17.38
2023-02-08T20:26:40.637Z,12.80
2023-02-08T20:29:18.433Z,10.00
2023-02-08T20:34:47.374Z,14.07
2023-02-08T20:37:52.040Z,12.38
2023-02-08T20:40:27.819Z,12.30
2023-02-08T20:42:56.975Z,10.60
2023-02-08T20:45:25.699Z,12.07
2023-02-08T20:47:54.575Z,13.65
2023-02-08T20:50:27.783Z,12.23
2023-02-08T20:53:05.299Z,12.75
2023-02-08T20:55:35.701Z,14.60
2023-02-08T20:58:05.954Z,12.38
2023-02-08T21:00:41.835Z,12.98
2023-02-08T21:03:17.109Z,11.98
2023-02-08T21:05:44.616Z,11.52
2023-02-08T21:08:14.703Z,10.88
2023-02-08T21:10:42.935Z,13.45
2023-02-08T21:13:11.974Z,10.93
2023-02-08T21:15:48.793Z,10.23
2023-02-08T21:18:22.137Z,7.15
2023-02-08T21:20:53.938Z,14.02
2023-02-08T21:23:34.619Z,14.00
2023-02-08T21:26:13.735Z,11.95
2023-02-08T21:29:04.312Z,14.63
2023-02-08T21:31:36.841Z,9.32
2023-02-08T21:34:10.492Z,12.13
2023-02-08T21:36:39.141Z,13.45
2023-02-08T21:39:14.481Z,11.45
2023-02-08T21:41:49.360Z,8.18
2023-02-08T21:44:35.624Z,10.63
2023-02-08T21:47:08.681Z,10.75
2023-02-08T21:50:05.102Z,9.50
2023-02-08T21:52:53.529Z,10.75
2023-02-08T21:55:27.447Z,11.55
2023-02-08T21:58:00.587Z,10.88
2023-02-08T22:00:31.946Z,13.75
2023-02-08T22:03:03.462Z,11.27
2023-02-08T22:05:42.295Z,13.85
2023-02-08T22:08:13.837Z,9.73
2023-02-08T22:10:58.801Z,9.65
2023-02-08T22:13:31.340Z,11.10
2023-02-08T22:16:03.919Z,12.57
2023-02-08T22:18:37.696Z,10.03
2023-02-08T22:21:09.962Z,11.20
2023-02-08T22:23:41.378Z,10.85
2023-02-08T22:26:11.497Z,11.50
2023-02-08T22:28:48.700Z,9.77
2023-02-08T22:31:20.115Z,10.32
2023-02-08T22:33:56.112Z,10.82
2023-02-08T22:36:24.683Z,9.40
2023-02-08T22:38:55.762Z,12.38
2023-02-08T22:41:25.741Z,12.13
2023-02-08T22:43:54.704Z,8.45
2023-02-08T22:46:24.612Z,12.68
2023-02-08T22:48:56.517Z,9.82
2023-02-08T22:51:29.892Z,13.75
2023-02-08T22:53:57.659Z,10.35
2023-02-08T22:56:26.909Z,9.93
2023-02-08T22:59:05.022Z,10.30
2023-02-08T23:01:42.855Z,10.35
2023-02-08T23:04:21.388Z,9.90
2023-02-08T23:06:54.860Z,8.00
2023-02-08T23:12:09.336Z,10.88
2023-02-08T23:14:40.482Z,12.02
2023-02-08T23:17:08.564Z,13.18
2023-02-08T23:19:36.222Z,11.25
2023-02-08T23:22:05.905Z,9.43
2023-02-08T23:24:44.055Z,11.43
2023-02-08T23:27:13.659Z,15.13
2023-02-08T23:29:41.657Z,9.38
2023-02-08T23:32:09.425Z,11.80
2023-02-08T23:34:38.911Z,12.65
2023-02-08T23:37:08.817Z,10.07
2023-02-08T23:39:36.173Z,12.75
2023-02-08T23:42:27.729Z,12.65
2023-02-08T23:45:01.257Z,12.23
2023-02-08T23:47:38.937Z,9.38
2023-02-08T23:50:19.147Z,10.43
2023-02-08T23:52:48.105Z,9.45
2023-02-08T23:55:24.063Z,9.00
2023-02-08T23:57:53.848Z,11.15
